sensor_id;sensor_type;location;lat;lon;timestamp;pressure;altitude;pressure_sealevel;temperature
72054;BMP280;59918;51.280;7.950;2024-02-23T01:33:15;95517.78;;;4.30
72054;BMP280;59918;51.280;7.950;2024-02-23T01:35:40;95510.03;;;4.25
72054;BMP280;59918;51.280;7.950;2024-02-23T01:38:06;95509.34;;;4.18
72054;BMP280;59918;51.280;7.950;2024-02-23T01:40:31;95515.09;;;4.14
72054;BMP280;59918;51.280;7.950;2024-02-23T01:43:05;95511.34;;;4.16
72054;BMP280;59918;51.280;7.950;2024-02-23T01:45:31;95521.66;;;4.21
72054;BMP280;59918;51.280;7.950;2024-02-23T01:47:58;95523.94;;;4.23
72054;BMP280;59918;51.280;7.950;2024-02-23T01:50:24;95513.34;;;4.26
72054;BMP280;59918;51.280;7.950;2024-02-23T01:52:54;95532.28;;;4.30
72054;BMP280;59918;51.280;7.950;2024-02-23T01:55:20;95521.88;;;4.31
72054;BMP280;59918;51.280;7.950;2024-02-23T01:57:46;95530.94;;;4.38
72054;BMP280;59918;51.280;7.950;2024-02-23T02:00:15;95530.53;;;4.41
72054;BMP280;59918;51.280;7.950;2024-02-23T02:02:41;95536.72;;;4.45
72054;BMP280;59918;51.280;7.950;2024-02-23T02:05:06;95536.59;;;4.52
72054;BMP280;59918;51.280;7.950;2024-02-23T02:07:35;95545.16;;;4.57
72054;BMP280;59918;51.280;7.950;2024-02-23T02:10:00;95538.84;;;4.60
72054;BMP280;59918;51.280;7.950;2024-02-23T02:12:32;95542.94;;;4.61
72054;BMP280;59918;51.280;7.950;2024-02-23T02:15:03;95550.91;;;4.64
72054;BMP280;59918;51.280;7.950;2024-02-23T02:17:28;95557.88;;;4.69
72054;BMP280;59918;51.280;7.950;2024-02-23T02:19:59;95552.59;;;4.70
72054;BMP280;59918;51.280;7.950;2024-02-23T02:22:26;95561.31;;;4.74
72054;BMP280;59918;51.280;7.950;2024-02-23T02:24:52;95561.88;;;4.76
72054;BMP280;59918;51.280;7.950;2024-02-23T02:27:17;95577.47;;;4.79
72054;BMP280;59918;51.280;7.950;2024-02-23T02:29:45;95579.81;;;4.81
72054;BMP280;59918;51.280;7.950;2024-02-23T02:32:11;95579.13;;;4.85
72054;BMP280;59918;51.280;7.950;2024-02-23T02:34:41;95578.69;;;4.88
72054;BMP280;59918;51.280;7.950;2024-02-23T02:37:07;95583.59;;;4.90
72054;BMP280;59918;51.280;7.950;2024-02-23T02:39:32;95578.50;;;4.90
72054;BMP280;59918;51.280;7.950;2024-02-23T02:41:57;95582.00;;;4.89
72054;BMP280;59918;51.280;7.950;2024-02-23T02:44:22;95587.09;;;4.89
72054;BMP280;59918;51.280;7.950;2024-02-23T02:46:48;95592.41;;;4.87
72054;BMP280;59918;51.280;7.950;2024-02-23T02:49:13;95591.22;;;4.90
72054;BMP280;59918;51.280;7.950;2024-02-23T02:51:38;95600.41;;;4.91
72054;BMP280;59918;51.280;7.950;2024-02-23T02:54:03;95598.84;;;4.90
72054;BMP280;59918;51.280;7.950;2024-02-23T02:56:29;95598.84;;;4.90
72054;BMP280;59918;51.280;7.950;2024-02-23T02:58:54;95602.59;;;4.87
72054;BMP280;59918;51.280;7.950;2024-02-23T03:01:19;95610.25;;;4.87
72054;BMP280;59918;51.280;7.950;2024-02-23T03:03:44;95605.50;;;4.91
72054;BMP280;59918;51.280;7.950;2024-02-23T03:06:10;95609.59;;;4.92
72054;BMP280;59918;51.280;7.950;2024-02-23T03:08:35;95613.69;;;4.93
72054;BMP280;59918;51.280;7.950;2024-02-23T03:11:00;95598.41;;;4.93
72054;BMP280;59918;51.280;7.950;2024-02-23T03:13:26;95612.91;;;4.92
72054;BMP280;59918;51.280;7.950;2024-02-23T03:15:51;95611.13;;;4.93
72054;BMP280;59918;51.280;7.950;2024-02-23T03:18:16;95614.25;;;4.95
72054;BMP280;59918;51.280;7.950;2024-02-23T03:20:42;95624.41;;;4.95
72054;BMP280;59918;51.280;7.950;2024-02-23T03:23:07;95624.41;;;4.95
72054;BMP280;59918;51.280;7.950;2024-02-23T03:25:32;95617.78;;;4.94
72054;BMP280;59918;51.280;7.950;2024-02-23T03:27:58;95621.88;;;4.95
72054;BMP280;59918;51.280;7.950;2024-02-23T03:30:23;95624.88;;;4.92
72054;BMP280;59918;51.280;7.950;2024-02-23T03:32:48;95625.66;;;4.92
72054;BMP280;59918;51.280;7.950;2024-02-23T03:35:13;95632.72;;;4.90
72054;BMP280;59918;51.280;7.950;2024-02-23T03:37:39;95643.47;;;4.92
72054;BMP280;59918;51.280;7.950;2024-02-23T03:40:05;95641.13;;;4.91
72054;BMP280;59918;51.280;7.950;2024-02-23T03:42:31;95624.31;;;4.90
72054;BMP280;59918;51.280;7.950;2024-02-23T03:44:56;95626.31;;;4.88
72054;BMP280;59918;51.280;7.950;2024-02-23T03:47:29;95637.25;;;4.88
72054;BMP280;59918;51.280;7.950;2024-02-23T03:49:54;95643.13;;;4.89
72054;BMP280;59918;51.280;7.950;2024-02-23T03:52:19;95649.22;;;4.88
72054;BMP280;59918;51.280;7.950;2024-02-23T03:54:44;95650.00;;;4.88
72054;BMP280;59918;51.280;7.950;2024-02-23T03:57:10;95651.78;;;4.88
72054;BMP280;59918;51.280;7.950;2024-02-23T03:59:36;95650.75;;;4.89
72054;BMP280;59918;51.280;7.950;2024-02-23T04:02:02;95656.63;;;4.89
72054;BMP280;59918;51.280;7.950;2024-02-23T04:04:27;95652.09;;;4.91
72054;BMP280;59918;51.280;7.950;2024-02-23T04:06:52;95653.31;;;4.89
72054;BMP280;59918;51.280;7.950;2024-02-23T06:07:52;95701.50;;;4.61
72054;BMP280;59918;51.280;7.950;2024-02-23T06:10:17;95697.97;;;4.62
72054;BMP280;59918;51.280;7.950;2024-02-23T06:12:48;95709.34;;;4.60
72054;BMP280;59918;51.280;7.950;2024-02-23T06:15:14;95694.06;;;4.60
72054;BMP280;59918;51.280;7.950;2024-02-23T06:17:39;95718.41;;;4.56
72054;BMP280;59918;51.280;7.950;2024-02-23T06:20:08;95710.66;;;4.51
72054;BMP280;59918;51.280;7.950;2024-02-23T06:22:33;95705.78;;;4.49
72054;BMP280;59918;51.280;7.950;2024-02-23T06:24:59;95714.47;;;4.42
72054;BMP280;59918;51.280;7.950;2024-02-23T06:27:24;95699.16;;;4.31
72054;BMP280;59918;51.280;7.950;2024-02-23T06:29:49;95704.53;;;4.23
72054;BMP280;59918;51.280;7.950;2024-02-23T06:32:15;95710.72;;;4.15
72054;BMP280;59918;51.280;7.950;2024-02-23T06:34:43;95721.94;;;4.08
72054;BMP280;59918;51.280;7.950;2024-02-23T06:37:08;95694.81;;;4.02
72054;BMP280;59918;51.280;7.950;2024-02-23T06:39:36;95703.88;;;3.98
72054;BMP280;59918;51.280;7.950;2024-02-23T06:42:01;95703.50;;;3.95
72054;BMP280;59918;51.280;7.950;2024-02-23T06:44:27;95697.28;;;3.91
72054;BMP280;59918;51.280;7.950;2024-02-23T06:46:54;95695.75;;;3.90
72054;BMP280;59918;51.280;7.950;2024-02-23T06:49:25;95695.41;;;3.86
72054;BMP280;59918;51.280;7.950;2024-02-23T06:51:50;95693.25;;;3.83
72054;BMP280;59918;51.280;7.950;2024-02-23T06:54:15;95705.84;;;3.78
72054;BMP280;59918;51.280;7.950;2024-02-23T06:56:43;95683.75;;;3.79
72054;BMP280;59918;51.280;7.950;2024-02-23T06:59:12;95692.13;;;3.79
72054;BMP280;59918;51.280;7.950;2024-02-23T07:01:50;95695.69;;;3.78
72054;BMP280;59918;51.280;7.950;2024-02-23T07:04:15;95691.78;;;3.76
72054;BMP280;59918;51.280;7.950;2024-02-23T07:06:41;95699.63;;;3.74
72054;BMP280;59918;51.280;7.950;2024-02-23T07:09:06;95697.66;;;3.76
72054;BMP280;59918;51.280;7.950;2024-02-23T07:11:34;95703.50;;;3.77
72054;BMP280;59918;51.280;7.950;2024-02-23T07:14:00;95710.13;;;3.78
72054;BMP280;59918;51.280;7.950;2024-02-23T07:16:25;95705.41;;;3.81
72054;BMP280;59918;51.280;7.950;2024-02-23T07:18:52;95714.97;;;3.86
72054;BMP280;59918;51.280;7.950;2024-02-23T07:21:18;95708.19;;;3.98
72054;BMP280;59918;51.280;7.950;2024-02-23T07:23:43;95702.31;;;3.97
72054;BMP280;59918;51.280;7.950;2024-02-23T07:26:08;95708.59;;;3.95
72054;BMP280;59918;51.280;7.950;2024-02-23T07:28:33;95701.13;;;3.99
72054;BMP280;59918;51.280;7.950;2024-02-23T07:30:59;95706.25;;;4.11
72054;BMP280;59918;51.280;7.950;2024-02-23T07:33:24;95715.16;;;4.20
72054;BMP280;59918;51.280;7.950;2024-02-23T07:35:49;95714.31;;;4.26
72054;BMP280;59918;51.280;7.950;2024-02-23T07:38:15;95716.41;;;4.29
72054;BMP280;59918;51.280;7.950;2024-02-23T07:40:40;95712.69;;;4.31
72054;BMP280;59918;51.280;7.950;2024-02-23T07:43:05;95716.34;;;4.35
72054;BMP280;59918;51.280;7.950;2024-02-23T07:45:30;95717.88;;;4.36
72054;BMP280;59918;51.280;7.950;2024-02-23T07:47:55;95715.53;;;4.34
72054;BMP280;59918;51.280;7.950;2024-02-23T07:50:21;95722.06;;;4.31
72054;BMP280;59918;51.280;7.950;2024-02-23T07:52:46;95725.16;;;4.33
72054;BMP280;59918;51.280;7.950;2024-02-23T07:55:11;95727.28;;;4.35
72054;BMP280;59918;51.280;7.950;2024-02-23T07:57:37;95733.28;;;4.41
72054;BMP280;59918;51.280;7.950;2024-02-23T08:00:02;95737.53;;;4.47
72054;BMP280;59918;51.280;7.950;2024-02-23T08:02:27;95724.34;;;4.50
72054;BMP280;59918;51.280;7.950;2024-02-23T08:04:53;95730.56;;;4.83
72054;BMP280;59918;51.280;7.950;2024-02-23T08:07:18;95715.69;;;4.98
72054;BMP280;59918;51.280;7.950;2024-02-23T08:09:43;95723.75;;;5.06
72054;BMP280;59918;51.280;7.950;2024-02-23T08:12:08;95731.22;;;5.19
72054;BMP280;59918;51.280;7.950;2024-02-23T08:14:40;95724.44;;;5.24
72054;BMP280;59918;51.280;7.950;2024-02-23T08:17:05;95736.75;;;5.27
72054;BMP280;59918;51.280;7.950;2024-02-23T08:19:30;95737.66;;;5.33
72054;BMP280;59918;51.280;7.950;2024-02-23T08:21:55;95732.66;;;5.38
72054;BMP280;59918;51.280;7.950;2024-02-23T08:24:21;95739.00;;;5.46
72054;BMP280;59918;51.280;7.950;2024-02-23T08:26:46;95731.81;;;5.55
72054;BMP280;59918;51.280;7.950;2024-02-23T08:29:11;95734.69;;;5.70
72054;BMP280;59918;51.280;7.950;2024-02-23T08:31:36;95738.59;;;5.83
72054;BMP280;59918;51.280;7.950;2024-02-23T08:34:03;95736.69;;;5.90
72054;BMP280;59918;51.280;7.950;2024-02-23T08:36:28;95728.94;;;5.85
72054;BMP280;59918;51.280;7.950;2024-02-23T08:38:53;95751.44;;;5.88
72054;BMP280;59918;51.280;7.950;2024-02-23T08:41:18;95732.03;;;5.99
72054;BMP280;59918;51.280;7.950;2024-02-23T08:43:44;95768.19;;;5.96
72054;BMP280;59918;51.280;7.950;2024-02-23T08:46:09;95764.88;;;5.95
72054;BMP280;59918;51.280;7.950;2024-02-23T08:48:34;95742.22;;;6.10
72054;BMP280;59918;51.280;7.950;2024-02-23T08:51:00;95742.31;;;6.15
72054;BMP280;59918;51.280;7.950;2024-02-23T08:53:25;95749.63;;;6.23
72054;BMP280;59918;51.280;7.950;2024-02-23T08:55:50;95735.63;;;6.37
72054;BMP280;59918;51.280;7.950;2024-02-23T08:58:15;95737.97;;;6.66
72054;BMP280;59918;51.280;7.950;2024-02-23T09:00:41;95744.78;;;6.77
72054;BMP280;59918;51.280;7.950;2024-02-23T09:03:08;95741.50;;;6.65
72054;BMP280;59918;51.280;7.950;2024-02-23T09:05:33;95749.69;;;6.78
72054;BMP280;59918;51.280;7.950;2024-02-23T09:07:58;95744.09;;;6.81
72054;BMP280;59918;51.280;7.950;2024-02-23T09:10:24;95747.63;;;6.91
72054;BMP280;59918;51.280;7.950;2024-02-23T09:12:49;95749.63;;;6.90
72054;BMP280;59918;51.280;7.950;2024-02-23T09:15:16;95771.75;;;6.84
72054;BMP280;59918;51.280;7.950;2024-02-23T09:17:42;95762.53;;;6.83
72054;BMP280;59918;51.280;7.950;2024-02-23T09:20:07;95758.50;;;6.87
72054;BMP280;59918;51.280;7.950;2024-02-23T09:22:33;95756.97;;;6.86
72054;BMP280;59918;51.280;7.950;2024-02-23T09:24:58;95766.41;;;6.86
72054;BMP280;59918;51.280;7.950;2024-02-23T09:27:24;95754.78;;;6.78
72054;BMP280;59918;51.280;7.950;2024-02-23T09:29:51;95773.56;;;6.72
72054;BMP280;59918;51.280;7.950;2024-02-23T09:32:17;95780.03;;;6.63
72054;BMP280;59918;51.280;7.950;2024-02-23T09:34:42;95767.50;;;6.62
72054;BMP280;59918;51.280;7.950;2024-02-23T09:37:07;95779.59;;;6.66
72054;BMP280;59918;51.280;7.950;2024-02-23T09:39:32;95784.91;;;6.65
72054;BMP280;59918;51.280;7.950;2024-02-23T09:41:58;95776.03;;;6.67
72054;BMP280;59918;51.280;7.950;2024-02-23T09:44:23;95776.22;;;6.77
72054;BMP280;59918;51.280;7.950;2024-02-23T09:46:48;95774.63;;;6.88
72054;BMP280;59918;51.280;7.950;2024-02-23T09:49:15;95764.81;;;6.96
72054;BMP280;59918;51.280;7.950;2024-02-23T09:51:41;95771.13;;;7.05
72054;BMP280;59918;51.280;7.950;2024-02-23T09:54:07;95766.56;;;7.23
72054;BMP280;59918;51.280;7.950;2024-02-23T09:56:32;95773.31;;;7.45
72054;BMP280;59918;51.280;7.950;2024-02-23T09:59:01;95762.56;;;8.51
72054;BMP280;59918;51.280;7.950;2024-02-23T10:01:28;95757.69;;;9.90
72054;BMP280;59918;51.280;7.950;2024-02-23T10:03:56;95767.22;;;9.58
72054;BMP280;59918;51.280;7.950;2024-02-23T10:06:21;95763.44;;;9.09
72054;BMP280;59918;51.280;7.950;2024-02-23T10:08:47;95745.72;;;8.81
72054;BMP280;59918;51.280;7.950;2024-02-23T10:11:14;95753.91;;;8.57
72054;BMP280;59918;51.280;7.950;2024-02-23T10:13:42;95756.88;;;8.28
72054;BMP280;59918;51.280;7.950;2024-02-23T10:16:08;95767.59;;;8.08
72054;BMP280;59918;51.280;7.950;2024-02-23T10:18:33;95754.25;;;7.85
72054;BMP280;59918;51.280;7.950;2024-02-23T10:20:58;95754.66;;;7.77
72054;BMP280;59918;51.280;7.950;2024-02-23T10:23:23;95768.84;;;8.06
72054;BMP280;59918;51.280;7.950;2024-02-23T10:25:49;95747.28;;;8.18
72054;BMP280;59918;51.280;7.950;2024-02-23T10:28:14;95757.06;;;8.21
72054;BMP280;59918;51.280;7.950;2024-02-23T10:30:39;95759.34;;;8.86
72054;BMP280;59918;51.280;7.950;2024-02-23T10:33:05;95756.03;;;9.12
72054;BMP280;59918;51.280;7.950;2024-02-23T10:35:31;95776.50;;;8.60
72054;BMP280;59918;51.280;7.950;2024-02-23T10:37:57;95782.91;;;8.41
72054;BMP280;59918;51.280;7.950;2024-02-23T10:40:23;95779.22;;;8.53
72054;BMP280;59918;51.280;7.950;2024-02-23T10:42:50;95791.13;;;8.85
72054;BMP280;59918;51.280;7.950;2024-02-23T10:45:17;95797.44;;;9.51
72054;BMP280;59918;51.280;7.950;2024-02-23T10:47:44;95763.16;;;12.08
72054;BMP280;59918;51.280;7.950;2024-02-23T10:50:09;95762.91;;;11.61
72054;BMP280;59918;51.280;7.950;2024-02-23T10:52:35;95766.38;;;10.81
72054;BMP280;59918;51.280;7.950;2024-02-23T10:55:01;95770.78;;;10.29
72054;BMP280;59918;51.280;7.950;2024-02-23T10:57:27;95761.63;;;9.97
72054;BMP280;59918;51.280;7.950;2024-02-23T10:59:52;95775.84;;;9.47
72054;BMP280;59918;51.280;7.950;2024-02-23T11:02:19;95774.78;;;9.12
72054;BMP280;59918;51.280;7.950;2024-02-23T11:04:49;95797.25;;;8.84
72054;BMP280;59918;51.280;7.950;2024-02-23T11:07:15;95777.50;;;8.59
72054;BMP280;59918;51.280;7.950;2024-02-23T11:09:40;95783.16;;;8.39
72054;BMP280;59918;51.280;7.950;2024-02-23T11:12:06;95788.19;;;8.13
72054;BMP280;59918;51.280;7.950;2024-02-23T11:14:34;95794.06;;;7.98
72054;BMP280;59918;51.280;7.950;2024-02-23T11:16:59;95792.16;;;7.88
72054;BMP280;59918;51.280;7.950;2024-02-23T11:19:34;95789.81;;;7.87
72054;BMP280;59918;51.280;7.950;2024-02-23T11:22:00;95786.47;;;7.86
72054;BMP280;59918;51.280;7.950;2024-02-23T11:24:28;95784.91;;;8.01
72054;BMP280;59918;51.280;7.950;2024-02-23T11:26:58;95783.28;;;8.12
72054;BMP280;59918;51.280;7.950;2024-02-23T11:29:26;95785.00;;;8.23
72054;BMP280;59918;51.280;7.950;2024-02-23T11:31:51;95783.84;;;8.14
72054;BMP280;59918;51.280;7.950;2024-02-23T11:34:22;95785.91;;;8.00
72054;BMP280;59918;51.280;7.950;2024-02-23T11:36:50;95793.00;;;7.94
72054;BMP280;59918;51.280;7.950;2024-02-23T11:39:16;95774.56;;;8.29
72054;BMP280;59918;51.280;7.950;2024-02-23T11:41:41;95764.56;;;8.70
72054;BMP280;59918;51.280;7.950;2024-02-23T11:44:07;95770.22;;;9.50
72054;BMP280;59918;51.280;7.950;2024-02-23T11:46:32;95775.84;;;9.47
72054;BMP280;59918;51.280;7.950;2024-02-23T11:48:57;95774.81;;;9.48
72054;BMP280;59918;51.280;7.950;2024-02-23T11:51:23;95766.91;;;9.24
72054;BMP280;59918;51.280;7.950;2024-02-23T11:53:49;95777.13;;;8.93
72054;BMP280;59918;51.280;7.950;2024-02-23T11:56:15;95783.81;;;8.73
72054;BMP280;59918;51.280;7.950;2024-02-23T11:58:40;95769.47;;;8.72
72054;BMP280;59918;51.280;7.950;2024-02-23T12:01:06;95777.47;;;8.54
72054;BMP280;59918;51.280;7.950;2024-02-23T12:03:31;95772.69;;;8.41
72054;BMP280;59918;51.280;7.950;2024-02-23T12:05:57;95769.56;;;8.39
72054;BMP280;59918;51.280;7.950;2024-02-23T12:08:24;95772.22;;;8.44
72054;BMP280;59918;51.280;7.950;2024-02-23T12:10:49;95763.72;;;8.65
72054;BMP280;59918;51.280;7.950;2024-02-23T12:13:17;95773.53;;;8.94
72054;BMP280;59918;51.280;7.950;2024-02-23T12:15:42;95767.06;;;9.12
72054;BMP280;59918;51.280;7.950;2024-02-23T12:18:10;95748.78;;;9.97
72054;BMP280;59918;51.280;7.950;2024-02-23T12:20:36;95762.91;;;9.69
72054;BMP280;59918;51.280;7.950;2024-02-23T12:23:01;95767.50;;;9.31
72054;BMP280;59918;51.280;7.950;2024-02-23T12:25:26;95751.16;;;9.10
72054;BMP280;59918;51.280;7.950;2024-02-23T12:27:55;95764.88;;;9.00
72054;BMP280;59918;51.280;7.950;2024-02-23T12:30:21;95748.25;;;9.02
72054;BMP280;59918;51.280;7.950;2024-02-23T12:32:46;95753.09;;;9.56
72054;BMP280;59918;51.280;7.950;2024-02-23T12:35:12;95751.50;;;10.93
72054;BMP280;59918;51.280;7.950;2024-02-23T12:37:37;95778.34;;;11.90
72054;BMP280;59918;51.280;7.950;2024-02-23T12:40:02;95739.47;;;13.60
72054;BMP280;59918;51.280;7.950;2024-02-23T12:42:28;95741.56;;;16.60
72054;BMP280;59918;51.280;7.950;2024-02-23T12:44:53;95732.84;;;17.96
72054;BMP280;59918;51.280;7.950;2024-02-23T12:47:18;95745.56;;;17.76
72054;BMP280;59918;51.280;7.950;2024-02-23T12:49:43;95762.19;;;15.80
72054;BMP280;59918;51.280;7.950;2024-02-23T12:52:09;95762.91;;;14.94
72054;BMP280;59918;51.280;7.950;2024-02-23T12:54:34;95776.44;;;13.84
72054;BMP280;59918;51.280;7.950;2024-02-23T12:56:59;95764.47;;;16.13
72054;BMP280;59918;51.280;7.950;2024-02-23T12:59:24;95748.53;;;16.99
72054;BMP280;59918;51.280;7.950;2024-02-23T13:01:50;95769.03;;;16.34
72054;BMP280;59918;51.280;7.950;2024-02-23T13:04:15;95757.81;;;16.52
72054;BMP280;59918;51.280;7.950;2024-02-23T13:06:40;95756.41;;;16.14
72054;BMP280;59918;51.280;7.950;2024-02-23T13:09:06;95755.75;;;15.77
72054;BMP280;59918;51.280;7.950;2024-02-23T13:11:31;95752.78;;;15.52
72054;BMP280;59918;51.280;7.950;2024-02-23T13:13:57;95763.34;;;14.08
72054;BMP280;59918;51.280;7.950;2024-02-23T13:16:22;95770.19;;;12.71
72054;BMP280;59918;51.280;7.950;2024-02-23T13:18:47;95766.50;;;11.94
72054;BMP280;59918;51.280;7.950;2024-02-23T13:21:13;95762.88;;;11.31
72054;BMP280;59918;51.280;7.950;2024-02-23T13:23:39;95761.53;;;10.89
72054;BMP280;59918;51.280;7.950;2024-02-23T13:26:04;95775.47;;;10.47
72054;BMP280;59918;51.280;7.950;2024-02-23T13:28:29;95774.75;;;10.06
72054;BMP280;59918;51.280;7.950;2024-02-23T13:30:54;95774.44;;;9.66
72054;BMP280;59918;51.280;7.950;2024-02-23T13:33:20;95780.41;;;9.41
72054;BMP280;59918;51.280;7.950;2024-02-23T13:35:45;95777.91;;;9.19
72054;BMP280;59918;51.280;7.950;2024-02-23T13:38:10;95778.78;;;9.04
72054;BMP280;59918;51.280;7.950;2024-02-23T13:40:35;95790.72;;;8.93
72054;BMP280;59918;51.280;7.950;2024-02-23T13:43:01;95800.22;;;8.72
72054;BMP280;59918;51.280;7.950;2024-02-23T13:45:26;95795.00;;;8.45
72054;BMP280;59918;51.280;7.950;2024-02-23T13:47:59;95791.78;;;8.34
72054;BMP280;59918;51.280;7.950;2024-02-23T13:50:25;95809.41;;;8.30
72054;BMP280;59918;51.280;7.950;2024-02-23T13:52:51;95804.00;;;8.27
72054;BMP280;59918;51.280;7.950;2024-02-23T13:55:16;95800.78;;;8.36
72054;BMP280;59918;51.280;7.950;2024-02-23T13:57:41;95816.88;;;8.53
72054;BMP280;59918;51.280;7.950;2024-02-23T14:00:07;95807.69;;;8.57
72054;BMP280;59918;51.280;7.950;2024-02-23T14:02:32;95812.47;;;8.48
72054;BMP280;59918;51.280;7.950;2024-02-23T14:05:01;95811.63;;;8.43
72054;BMP280;59918;51.280;7.950;2024-02-23T14:07:27;95812.13;;;8.40
72054;BMP280;59918;51.280;7.950;2024-02-23T14:09:52;95817.78;;;8.42
72054;BMP280;59918;51.280;7.950;2024-02-23T14:12:17;95809.00;;;8.38
72054;BMP280;59918;51.280;7.950;2024-02-23T14:14:45;95809.13;;;8.48
72054;BMP280;59918;51.280;7.950;2024-02-23T14:17:10;95820.28;;;8.58
72054;BMP280;59918;51.280;7.950;2024-02-23T14:19:35;95811.88;;;8.63
72054;BMP280;59918;51.280;7.950;2024-02-23T14:22:01;95810.25;;;8.57
72054;BMP280;59918;51.280;7.950;2024-02-23T14:24:26;95814.50;;;8.46
72054;BMP280;59918;51.280;7.950;2024-02-23T14:26:51;95813.66;;;8.41
72054;BMP280;59918;51.280;7.950;2024-02-23T14:29:16;95823.53;;;8.33
72054;BMP280;59918;51.280;7.950;2024-02-23T14:31:42;95817.59;;;8.91
72054;BMP280;59918;51.280;7.950;2024-02-23T14:34:07;95815.78;;;9.39
72054;BMP280;59918;51.280;7.950;2024-02-23T14:36:32;95812.16;;;9.35
72054;BMP280;59918;51.280;7.950;2024-02-23T14:38:57;95799.69;;;9.22
72054;BMP280;59918;51.280;7.950;2024-02-23T14:41:23;95794.41;;;10.31
72054;BMP280;59918;51.280;7.950;2024-02-23T14:43:48;95792.41;;;12.52
72054;BMP280;59918;51.280;7.950;2024-02-23T14:46:13;95783.03;;;13.71
72054;BMP280;59918;51.280;7.950;2024-02-23T14:48:38;95778.91;;;13.98
72054;BMP280;59918;51.280;7.950;2024-02-23T14:51:04;95785.84;;;13.75
72054;BMP280;59918;51.280;7.950;2024-02-23T14:53:29;95798.25;;;12.82
72054;BMP280;59918;51.280;7.950;2024-02-23T14:55:54;95802.56;;;11.99
72054;BMP280;59918;51.280;7.950;2024-02-23T14:58:20;95812.00;;;11.15
72054;BMP280;59918;51.280;7.950;2024-02-23T15:00:45;95809.34;;;10.34
72054;BMP280;59918;51.280;7.950;2024-02-23T15:03:10;95826.97;;;9.85
72054;BMP280;59918;51.280;7.950;2024-02-23T15:05:35;95811.25;;;11.24
72054;BMP280;59918;51.280;7.950;2024-02-23T15:08:01;95809.63;;;14.56
72054;BMP280;59918;51.280;7.950;2024-02-23T15:10:26;95806.38;;;16.20
72054;BMP280;59918;51.280;7.950;2024-02-23T15:12:51;95782.19;;;17.31
72054;BMP280;59918;51.280;7.950;2024-02-23T15:15:17;95783.75;;;16.79
72054;BMP280;59918;51.280;7.950;2024-02-23T15:17:42;95803.59;;;14.89
72054;BMP280;59918;51.280;7.950;2024-02-23T15:20:10;95791.56;;;15.89
72054;BMP280;59918;51.280;7.950;2024-02-23T15:22:35;95798.16;;;17.24
72054;BMP280;59918;51.280;7.950;2024-02-23T15:25:01;95788.53;;;18.03
72054;BMP280;59918;51.280;7.950;2024-02-23T15:27:26;95783.72;;;18.79
72054;BMP280;59918;51.280;7.950;2024-02-23T15:29:51;95774.69;;;19.57
72054;BMP280;59918;51.280;7.950;2024-02-23T15:32:17;95773.91;;;19.73
72054;BMP280;59918;51.280;7.950;2024-02-23T15:34:42;95779.38;;;19.04
72054;BMP280;59918;51.280;7.950;2024-02-23T15:37:08;95783.50;;;17.63
72054;BMP280;59918;51.280;7.950;2024-02-23T15:39:33;95776.94;;;16.43
72054;BMP280;59918;51.280;7.950;2024-02-23T15:41:58;95780.88;;;16.40
72054;BMP280;59918;51.280;7.950;2024-02-23T15:44:23;95775.00;;;15.71
72054;BMP280;59918;51.280;7.950;2024-02-23T15:46:49;95782.69;;;13.78
72054;BMP280;59918;51.280;7.950;2024-02-23T15:49:14;95789.50;;;12.68
72054;BMP280;59918;51.280;7.950;2024-02-23T15:51:39;95783.53;;;12.00
72054;BMP280;59918;51.280;7.950;2024-02-23T15:54:05;95794.56;;;11.41
72054;BMP280;59918;51.280;7.950;2024-02-23T15:56:30;95781.22;;;11.59
72054;BMP280;59918;51.280;7.950;2024-02-23T15:58:56;95798.25;;;10.75
72054;BMP280;59918;51.280;7.950;2024-02-23T16:01:21;95811.28;;;10.13
72054;BMP280;59918;51.280;7.950;2024-02-23T16:03:46;95815.28;;;9.99
72054;BMP280;59918;51.280;7.950;2024-02-23T16:06:12;95810.88;;;9.63
72054;BMP280;59918;51.280;7.950;2024-02-23T16:08:46;95819.78;;;9.30
72054;BMP280;59918;51.280;7.950;2024-02-23T16:11:12;95823.38;;;9.03
72054;BMP280;59918;51.280;7.950;2024-02-23T16:13:38;95816.22;;;8.83
72054;BMP280;59918;51.280;7.950;2024-02-23T16:16:08;95825.22;;;8.65
72054;BMP280;59918;51.280;7.950;2024-02-23T16:18:34;95827.47;;;8.40
72054;BMP280;59918;51.280;7.950;2024-02-23T16:21:00;95820.53;;;8.19
72054;BMP280;59918;51.280;7.950;2024-02-23T16:23:26;95822.19;;;8.09
72054;BMP280;59918;51.280;7.950;2024-02-23T16:25:51;95822.28;;;8.02
72054;BMP280;59918;51.280;7.950;2024-02-23T16:28:17;95825.78;;;7.97
72054;BMP280;59918;51.280;7.950;2024-02-23T16:30:42;95821.59;;;7.91
72054;BMP280;59918;51.280;7.950;2024-02-23T16:33:07;95821.38;;;7.76
72054;BMP280;59918;51.280;7.950;2024-02-23T16:35:33;95829.81;;;7.60
72054;BMP280;59918;51.280;7.950;2024-02-23T16:37:58;95818.34;;;7.46
72054;BMP280;59918;51.280;7.950;2024-02-23T16:40:23;95820.19;;;7.34
72054;BMP280;59918;51.280;7.950;2024-02-23T16:42:49;95813.56;;;7.22
72054;BMP280;59918;51.280;7.950;2024-02-23T16:45:15;95826.06;;;7.19
72054;BMP280;59918;51.280;7.950;2024-02-23T16:47:41;95823.50;;;7.19
72054;BMP280;59918;51.280;7.950;2024-02-23T16:50:06;95814.72;;;7.15
72054;BMP280;59918;51.280;7.950;2024-02-23T16:52:31;95824.63;;;7.11
72054;BMP280;59918;51.280;7.950;2024-02-23T16:54:57;95819.19;;;7.08
72054;BMP280;59918;51.280;7.950;2024-02-23T16:57:22;95827.34;;;7.05
72054;BMP280;59918;51.280;7.950;2024-02-23T16:59:47;95825.22;;;7.02
72054;BMP280;59918;51.280;7.950;2024-02-23T17:02:15;95827.78;;;7.02
72054;BMP280;59918;51.280;7.950;2024-02-23T17:04:40;95833.09;;;7.00
72054;BMP280;59918;51.280;7.950;2024-02-23T17:07:05;95830.47;;;6.95
72054;BMP280;59918;51.280;7.950;2024-02-23T17:09:30;95846.38;;;6.86
72054;BMP280;59918;51.280;7.950;2024-02-23T17:11:56;95846.19;;;6.76
72054;BMP280;59918;51.280;7.950;2024-02-23T17:14:21;95842.88;;;6.64
72054;BMP280;59918;51.280;7.950;2024-02-23T17:16:46;95837.44;;;6.50
72054;BMP280;59918;51.280;7.950;2024-02-23T17:19:12;95848.69;;;6.37
72054;BMP280;59918;51.280;7.950;2024-02-23T17:21:37;95856.13;;;6.27
72054;BMP280;59918;51.280;7.950;2024-02-23T17:24:02;95852.25;;;6.25
72054;BMP280;59918;51.280;7.950;2024-02-23T17:26:28;95862.56;;;6.18
72054;BMP280;59918;51.280;7.950;2024-02-23T17:28:53;95853.03;;;6.14
72054;BMP280;59918;51.280;7.950;2024-02-23T17:31:18;95847.81;;;6.09
72054;BMP280;59918;51.280;7.950;2024-02-23T17:33:43;95852.25;;;6.02
72054;BMP280;59918;51.280;7.950;2024-02-23T17:36:09;95856.34;;;5.92
72054;BMP280;59918;51.280;7.950;2024-02-23T17:38:34;95861.56;;;5.85
72054;BMP280;59918;51.280;7.950;2024-02-23T17:41:01;95860.00;;;5.84